Time;durP1;ratioP1;P1;durP2;ratioP2;P2;SDS_P1;SDS_P2;PMS_P1;PMS_P2;Temp;Humidity;BMP_temperature;BMP_pressure;BME280_temperature;BME280_humidity;BME280_pressure;Samples;Min_cycle;Max_cycle;Signal;HPM_P1;HPM_P2
2023/05/11 05:38:57;;;;;;;7.10;3.80;;;;;;;11.30;56.05;100917.13;101438;1276;22206;-54
2023/05/11 05:41:25;;;;;;;7.70;4.40;;;;;;;11.46;54.90;100914.44;109544;1273;22790;-54
2023/05/11 05:43:53;;;;;;;6.80;3.70;;;;;;;11.64;53.75;100914.19;109247;1278;22505;-55
2023/05/11 05:46:20;;;;;;;8.80;4.30;;;;;;;11.81;53.88;100915.69;108906;1273;22397;-55
2023/05/11 05:48:48;;;;;;;10.50;3.90;;;;;;;11.99;51.91;100913.52;109617;1275;23256;-53
2023/05/11 05:51:15;;;;;;;8.80;3.60;;;;;;;12.17;48.38;100915.33;109371;1275;22973;-55
2023/05/11 05:53:48;;;;;;;7.70;3.30;;;;;;;12.32;46.66;100912.55;109638;1279;22287;-55
2023/05/11 05:56:15;;;;;;;13.10;3.80;;;;;;;12.45;46.52;100909.45;109598;1273;22814;-48
2023/05/11 05:58:42;;;;;;;7.20;3.80;;;;;;;12.61;46.45;100909.31;109197;1275;22534;-46
2023/05/11 06:01:10;;;;;;;6.70;2.70;;;;;;;12.75;43.99;100907.39;109230;1280;22330;-46
2023/05/11 06:03:38;;;;;;;7.30;2.90;;;;;;;12.87;41.91;100903.89;109727;1275;22168;-46
2023/05/11 06:06:06;;;;;;;3.80;2.30;;;;;;;12.99;40.10;100899.70;109796;1276;23128;-46
2023/05/11 06:08:33;;;;;;;3.60;1.70;;;;;;;13.16;39.03;100902.33;109851;1273;22329;-44
2023/05/11 06:11:00;;;;;;;3.40;1.90;;;;;;;13.32;38.19;100899.35;109688;1273;22578;-46
2023/05/11 06:13:27;;;;;;;4.40;1.70;;;;;;;13.46;38.77;100900.38;109801;1273;22749;-45
2023/05/11 06:15:54;;;;;;;5.80;2.40;;;;;;;13.63;38.47;100900.50;109499;1273;22538;-52
2023/05/11 06:18:27;;;;;;;6.20;2.30;;;;;;;13.74;38.91;100900.82;109401;1275;23499;-56
2023/05/11 06:20:56;;;;;;;6.80;2.40;;;;;;;13.86;37.60;100901.13;109366;1279;23052;-57
2023/05/11 06:23:25;;;;;;;2.60;1.80;;;;;;;13.93;36.19;100905.49;109369;1277;22186;-46
2023/05/11 06:25:52;;;;;;;8.10;1.90;;;;;;;13.96;35.16;100904.24;109420;1276;22852;-56
2023/05/11 06:28:21;;;;;;;10.50;2.10;;;;;;;14.02;36.07;100905.63;109430;1275;23045;-56
2023/05/11 06:30:48;;;;;;;3.80;1.50;;;;;;;14.15;34.56;100905.73;109591;1279;22398;-47
2023/05/11 06:33:15;;;;;;;5.40;2.20;;;;;;;14.24;34.81;100910.08;109524;1280;22715;-51
2023/05/11 06:35:44;;;;;;;4.10;1.40;;;;;;;14.34;34.62;100906.51;109670;1281;22871;-46
2023/05/11 06:38:11;;;;;;;3.10;1.60;;;;;;;14.48;34.19;100905.56;109496;1279;22698;-46
2023/05/11 06:40:39;;;;;;;5.10;2.40;;;;;;;14.59;32.76;100904.63;109310;1280;22720;-46
2023/05/11 06:43:07;;;;;;;6.90;1.60;;;;;;;14.63;32.67;100904.08;109377;1279;22576;-56
2023/05/11 06:45:44;;;;;;;2.70;1.60;;;;;;;14.65;31.87;100899.66;109521;1280;23511;-46
2023/05/11 06:48:11;;;;;;;4.50;1.90;;;;;;;14.70;31.95;100900.17;109457;1273;22319;-45
2023/05/11 06:50:38;;;;;;;4.60;1.50;;;;;;;14.77;32.21;100901.70;109526;1273;22244;-55
2023/05/11 06:53:05;;;;;;;6.10;1.60;;;;;;;14.89;31.75;100909.15;109396;1261;22393;-55
2023/05/11 06:55:33;;;;;;;2.10;1.30;;;;;;;15.01;30.85;100900.09;109156;1276;22466;-58
2023/05/11 06:58:01;;;;;;;2.50;1.30;;;;;;;15.15;30.77;100902.25;108495;1279;23103;-56
2023/05/11 07:00:28;;;;;;;2.90;1.40;;;;;;;15.28;30.93;100906.70;109238;1273;22950;-46
2023/05/11 07:02:55;;;;;;;3.20;1.60;;;;;;;15.36;29.28;100913.83;109487;1272;22718;-47
2023/05/11 07:05:22;;;;;;;3.10;1.40;;;;;;;15.30;28.93;100912.30;109397;1273;23109;-56
2023/05/11 07:07:50;;;;;;;8.70;1.50;;;;;;;15.22;29.41;100913.44;109596;1274;22838;-57
2023/05/11 07:10:18;;;;;;;3.00;1.60;;;;;;;15.25;29.57;100909.17;109493;1276;22992;-57
2023/05/11 07:12:45;;;;;;;3.80;1.40;;;;;;;15.37;29.79;100908.19;109621;1280;22900;-46
2023/05/11 07:15:12;;;;;;;2.00;1.70;;;;;;;15.49;30.16;100909.66;109695;1275;23331;-47
2023/05/11 07:17:39;;;;;;;8.20;1.20;;;;;;;15.64;29.81;100907.77;109614;1274;23078;-47
2023/05/11 07:20:07;;;;;;;1.90;1.00;;;;;;;15.82;29.56;100909.31;109569;1273;23518;-46
2023/05/11 07:22:34;;;;;;;3.20;1.40;;;;;;;16.00;28.74;100904.01;109110;1273;22883;-46
2023/05/11 07:25:01;;;;;;;4.30;1.70;;;;;;;16.01;28.58;100908.04;109453;1278;23640;-48
2023/05/11 07:27:30;;;;;;;3.40;1.80;;;;;;;15.83;28.13;100908.07;109560;1274;22438;-52
2023/05/11 07:29:57;;;;;;;2.60;1.40;;;;;;;15.69;29.18;100910.34;109364;1276;22399;-46
2023/05/11 07:32:24;;;;;;;2.10;1.30;;;;;;;15.79;29.61;100909.35;109712;1273;22998;-56
2023/05/11 07:34:51;;;;;;;1.70;1.20;;;;;;;16.00;29.56;100911.39;109771;1280;22328;-47
2023/05/11 07:37:18;;;;;;;3.60;1.60;;;;;;;16.15;28.98;100909.59;109661;1276;22879;-46
2023/05/11 07:39:45;;;;;;;3.20;1.60;;;;;;;16.16;27.90;100906.95;109766;1280;22417;-57
2023/05/11 07:42:12;;;;;;;4.60;2.00;;;;;;;16.04;28.34;100909.39;109704;1281;22405;-56
2023/05/11 07:44:39;;;;;;;5.90;1.50;;;;;;;15.90;29.02;100908.88;109664;1273;22344;-46
2023/05/11 07:47:06;;;;;;;1.50;1.40;;;;;;;15.81;29.57;100909.33;109732;1273;23143;-55
2023/05/11 07:49:33;;;;;;;4.40;1.50;;;;;;;15.78;29.14;100910.43;109543;1279;23170;-56
2023/05/11 07:52:09;;;;;;;2.50;1.80;;;;;;;15.80;29.11;100906.88;109206;1280;22461;-47
2023/05/11 07:54:39;;;;;;;2.10;1.20;;;;;;;15.83;28.92;100904.38;109019;1279;22413;-46
2023/05/11 07:57:06;;;;;;;7.30;1.70;;;;;;;15.87;29.13;100903.80;109446;1273;22381;-46
2023/05/11 07:59:34;;;;;;;18.00;1.80;;;;;;;15.94;29.78;100895.27;109840;1273;22838;-56
2023/05/11 08:02:03;;;;;;;5.60;1.50;;;;;;;16.08;30.40;100900.37;109001;1280;22740;-60
2023/05/11 08:04:30;;;;;;;3.60;1.80;;;;;;;16.22;30.70;100895.97;109709;1279;23306;-56
2023/05/11 08:06:57;;;;;;;3.00;1.80;;;;;;;16.24;29.54;100899.29;109387;1279;22502;-56
2023/05/11 08:09:25;;;;;;;4.80;1.50;;;;;;;16.16;29.14;100899.56;109799;1273;22676;-46
2023/05/11 08:11:55;;;;;;;6.50;2.30;;;;;;;16.15;29.46;100901.70;109685;1275;22325;-57
2023/05/11 08:14:24;;;;;;;3.30;1.70;;;;;;;16.13;29.07;100896.43;109765;1279;22677;-57
2023/05/11 08:16:51;;;;;;;1.60;1.20;;;;;;;16.03;28.96;100895.68;109206;1280;23314;-47
2023/05/11 08:19:18;;;;;;;5.00;1.40;;;;;;;15.95;28.46;100889.45;109406;1273;22845;-48
2023/05/11 08:21:45;;;;;;;8.00;1.50;;;;;;;15.87;29.25;100897.13;108856;1277;22557;-57
2023/05/11 08:24:13;;;;;;;3.10;1.50;;;;;;;15.75;29.29;100898.31;109433;1273;22934;-57
2023/05/11 08:26:40;;;;;;;6.90;1.70;;;;;;;15.62;29.43;100898.98;109193;1278;22276;-47
2023/05/11 08:29:09;;;;;;;3.90;1.60;;;;;;;15.52;29.70;100899.59;109309;1273;22379;-47
2023/05/11 08:31:38;;;;;;;8.40;2.20;;;;;;;15.48;29.48;100899.30;108998;1279;22857;-55
2023/05/11 08:34:07;;;;;;;4.60;1.80;;;;;;;15.45;29.42;100904.42;109768;1279;22352;-55
2023/05/11 08:36:44;;;;;;;6.70;1.90;;;;;;;15.47;29.85;100899.30;109775;1273;22383;-55
2023/05/11 08:39:11;;;;;;;3.50;1.80;;;;;;;15.53;29.26;100901.17;109751;1279;23078;-46
2023/05/11 08:41:38;;;;;;;6.20;1.90;;;;;;;15.54;29.41;100896.41;109227;1279;22447;-56
2023/05/11 08:44:06;;;;;;;7.70;2.40;;;;;;;15.55;29.49;100897.81;109299;1273;23171;-56
2023/05/11 08:46:34;;;;;;;5.20;2.00;;;;;;;15.62;29.17;100894.76;109171;1275;27162;-54
2023/05/11 08:49:01;;;;;;;3.20;2.00;;;;;;;15.71;29.55;100893.80;109751;1277;22190;-57
2023/05/11 08:51:28;;;;;;;4.20;2.50;;;;;;;15.82;29.57;100890.33;109759;1273;22961;-46
2023/05/11 08:53:59;;;;;;;2.90;1.80;;;;;;;15.90;28.80;100886.00;109315;1276;27171;-47
2023/05/11 08:56:29;;;;;;;8.80;1.40;;;;;;;15.97;28.92;100883.80;109852;1280;22255;-56
2023/05/11 08:58:56;;;;;;;5.00;1.70;;;;;;;16.03;29.01;100882.67;109772;1273;22413;-56
2023/05/11 09:01:23;;;;;;;5.30;1.80;;;;;;;16.06;28.94;100885.98;109526;1274;22395;-55
2023/05/11 09:03:50;;;;;;;1.40;1.20;;;;;;;16.05;28.30;100883.87;109824;1267;22706;-55
2023/05/11 09:06:17;;;;;;;4.00;1.50;;;;;;;16.00;28.29;100879.36;109719;1279;22465;-45
2023/05/11 09:08:44;;;;;;;5.60;1.80;;;;;;;15.97;28.25;100885.39;109638;1276;22216;-58
2023/05/11 09:11:12;;;;;;;4.50;1.50;;;;;;;15.92;28.05;100883.67;109136;1280;22630;-46
2023/05/11 09:13:40;;;;;;;2.40;1.70;;;;;;;15.89;27.60;100878.80;109099;1280;22245;-56
2023/05/11 09:16:07;;;;;;;6.20;1.90;;;;;;;15.89;28.53;100878.63;109822;1275;22450;-55
2023/05/11 09:18:57;;;;;;;4.50;1.40;;;;;;;15.92;28.41;100874.54;109883;1275;22369;-56
2023/05/11 09:21:24;;;;;;;1.60;1.30;;;;;;;15.92;28.63;100873.65;109819;1279;22448;-47
2023/05/11 09:23:51;;;;;;;2.90;1.60;;;;;;;16.02;28.85;100870.20;109940;1276;22415;-46
2023/05/11 09:26:19;;;;;;;7.70;1.80;;;;;;;16.27;28.36;100866.48;109683;1273;23470;-55
2023/05/11 09:28:59;;;;;;;3.40;1.40;;;;;;;16.57;28.08;100863.93;109681;1275;23227;-56
2023/05/11 09:31:40;;;;;;;5.60;1.40;;;;;;;16.80;28.45;100860.77;109641;1279;23017;-47
2023/05/11 09:34:27;;;;;;;5.60;1.30;;;;;;;16.91;27.04;100859.70;109771;1281;22385;-47
2023/05/11 09:36:55;;;;;;;3.70;1.30;;;;;;;16.91;26.89;100857.77;109796;1279;22420;-47
2023/05/11 09:39:33;;;;;;;4.60;1.30;;;;;;;16.92;27.10;100854.40;109679;1279;22462;-46
2023/05/11 09:42:20;;;;;;;7.40;1.60;;;;;;;17.00;26.46;100851.45;109739;1280;22261;-46
2023/05/11 09:44:47;;;;;;;4.50;1.20;;;;;;;17.07;26.68;100848.69;109704;1280;22291;-46
2023/05/11 09:47:20;;;;;;;1.10;1.00;;;;;;;17.19;26.44;100845.29;108586;1276;22398;-44
2023/05/11 09:49:47;;;;;;;3.50;1.00;;;;;;;17.39;26.03;100847.04;109307;1280;23115;-44
2023/05/11 09:52:15;;;;;;;3.10;1.30;;;;;;;17.59;26.56;100848.57;109533;1273;22403;-52
2023/05/11 09:54:46;;;;;;;3.70;0.90;;;;;;;17.85;26.92;100843.48;109502;1279;22478;-43
2023/05/11 09:57:27;;;;;;;2.80;1.40;;;;;;;18.07;26.03;100839.48;109679;1279;22295;-53
2023/05/11 09:59:55;;;;;;;1.50;1.20;;;;;;;18.17;25.26;100842.42;109724;1279;23016;-45
2023/05/11 10:02:24;;;;;;;2.50;1.60;;;;;;;18.05;24.73;100849.59;109398;1279;23108;-44
2023/05/11 10:04:53;;;;;;;4.00;1.50;;;;;;;17.78;25.22;100847.50;108692;1272;22286;-51
2023/05/11 10:07:31;;;;;;;7.40;1.50;;;;;;;17.55;26.44;100848.30;109679;1281;22574;-52
2023/05/11 10:10:05;;;;;;;1.70;1.20;;;;;;;17.38;26.40;100848.65;109710;1280;22218;-54
2023/05/11 10:12:36;;;;;;;2.10;1.40;;;;;;;17.26;26.45;100846.22;109615;1281;24815;-47
2023/05/11 10:15:10;;;;;;;5.50;1.30;;;;;;;17.25;26.44;100847.10;109292;1277;23074;-53
2023/05/11 10:17:45;;;;;;;3.30;1.50;;;;;;;17.24;25.87;100847.15;109022;1279;22627;-53
2023/05/11 10:20:13;;;;;;;1.60;1.00;;;;;;;17.16;25.81;100847.48;108101;1279;24196;-46
2023/05/11 10:22:42;;;;;;;3.20;1.50;;;;;;;17.11;25.61;100848.80;109481;1279;22421;-54
2023/05/11 10:25:09;;;;;;;3.20;1.10;;;;;;;17.11;25.83;100846.15;108563;1279;25600;-54
2023/05/11 10:27:38;;;;;;;3.00;1.20;;;;;;;17.16;25.66;100846.05;108836;1275;21980;-47
2023/05/11 10:30:09;;;;;;;1.40;1.20;;;;;;;17.22;25.74;100846.83;109596;1279;22284;-53
2023/05/11 10:32:37;;;;;;;6.90;1.10;;;;;;;17.26;25.81;100846.02;109192;1276;22219;-46
2023/05/11 10:35:05;;;;;;;1.30;1.20;;;;;;;17.31;25.80;100847.88;109582;1273;22833;-46
2023/05/11 10:37:32;;;;;;;1.40;1.10;;;;;;;17.36;25.70;100848.85;109689;1276;22382;-46
2023/05/11 10:39:59;;;;;;;2.80;1.10;;;;;;;17.36;25.23;100846.39;109761;1280;22353;-46
2023/05/11 10:42:51;;;;;;;1.40;1.20;;;;;;;17.32;24.95;100846.64;109670;1280;23018;-46
2023/05/11 10:45:30;;;;;;;2.10;1.50;;;;;;;17.19;25.03;100844.23;109717;1280;22852;-46
2023/05/11 10:48:13;;;;;;;1.30;1.10;;;;;;;17.08;25.67;100841.61;109669;1276;22416;-46
2023/05/11 10:50:51;;;;;;;1.60;1.30;;;;;;;17.07;25.45;100840.75;109683;1276;22293;-45
2023/05/11 10:53:36;;;;;;;1.30;1.10;;;;;;;17.14;25.11;100836.75;109461;1275;22787;-46
2023/05/11 10:56:15;;;;;;;1.40;1.20;;;;;;;17.20;25.17;100840.88;109676;1276;22404;-45
2023/05/11 10:59:07;;;;;;;6.20;1.60;;;;;;;17.26;24.92;100834.59;109717;1276;22274;-46
2023/05/11 11:01:41;;;;;;;3.40;1.60;;;;;;;17.27;24.29;100834.54;109887;1265;23049;-52
2023/05/11 11:04:09;;;;;;;2.30;1.10;;;;;;;17.30;24.54;100835.92;109689;1273;22368;-46
2023/05/11 11:06:37;;;;;;;2.30;1.30;;;;;;;17.40;24.54;100837.66;109646;1280;22407;-46
2023/05/11 11:09:14;;;;;;;1.90;1.10;;;;;;;17.51;24.38;100841.86;109772;1273;22404;-46
2023/05/11 11:11:46;;;;;;;1.70;1.00;;;;;;;17.68;24.24;100840.11;109853;1273;22217;-53
2023/05/11 11:14:13;;;;;;;2.30;1.20;;;;;;;17.86;24.15;100839.05;109675;1279;23422;-45
2023/05/11 11:17:00;;;;;;;3.80;1.20;;;;;;;17.96;24.03;100834.61;109777;1277;22179;-53
2023/05/11 11:19:31;;;;;;;1.90;1.20;;;;;;;18.04;24.12;100834.95;109793;1279;23691;-54
2023/05/11 11:21:58;;;;;;;1.90;1.00;;;;;;;18.13;24.28;100839.52;109830;1278;22183;-53
2023/05/11 11:24:38;;;;;;;2.70;1.20;;;;;;;18.21;24.14;100836.86;109829;1280;22274;-46
2023/05/11 11:27:05;;;;;;;3.10;1.10;;;;;;;18.24;24.39;100838.21;109864;1276;23085;-46
2023/05/11 11:29:33;;;;;;;2.40;1.30;;;;;;;18.18;24.66;100842.05;109856;1280;23196;-46
2023/05/11 11:32:18;;;;;;;2.60;1.50;;;;;;;18.05;24.72;100841.83;109852;1274;22141;-53
2023/05/11 11:34:46;;;;;;;5.00;1.10;;;;;;;17.94;25.30;100836.59;109871;1280;22341;-46
2023/05/11 11:37:15;;;;;;;2.70;1.00;;;;;;;17.94;24.86;100835.18;109852;1280;22388;-54
2023/05/11 11:39:42;;;;;;;8.40;1.30;;;;;;;17.98;25.22;100833.67;109872;1279;22719;-54
2023/05/11 11:42:14;;;;;;;5.30;1.00;;;;;;;18.00;25.57;100834.34;109775;1276;22370;-46
2023/05/11 11:44:42;;;;;;;4.20;1.80;;;;;;;18.03;25.10;100834.27;109056;1273;23033;-53
2023/05/11 11:47:22;;;;;;;3.50;1.10;;;;;;;18.08;24.68;100829.73;107602;1274;22551;-46
2023/05/11 11:49:50;;;;;;;2.90;1.10;;;;;;;18.11;24.60;100828.64;106858;1281;22658;-45
2023/05/11 11:52:37;;;;;;;3.30;1.60;;;;;;;18.11;24.75;100826.70;107669;1280;22907;-45
2023/05/11 11:55:05;;;;;;;4.00;1.00;;;;;;;18.14;24.26;100827.66;109906;1280;22413;-53
2023/05/11 11:57:32;;;;;;;3.30;1.20;;;;;;;18.14;23.41;100820.08;108913;1281;25230;-52
2023/05/11 12:00:06;;;;;;;1.30;1.10;;;;;;;18.21;23.45;100823.63;109878;1277;22288;-45
2023/05/11 12:02:43;;;;;;;5.70;1.20;;;;;;;18.42;23.29;100819.27;109943;1273;23122;-46
2023/05/11 12:05:13;;;;;;;5.60;1.00;;;;;;;18.63;23.97;100816.09;109834;1273;22270;-52
2023/05/11 12:07:42;;;;;;;3.50;1.30;;;;;;;18.84;23.19;100817.69;109045;1278;22300;-54
2023/05/11 12:10:11;;;;;;;2.40;1.10;;;;;;;18.98;22.62;100818.05;109910;1280;22435;-54
2023/05/11 12:12:38;;;;;;;7.40;1.20;;;;;;;19.04;22.95;100814.52;109931;1277;22269;-46
2023/05/11 12:15:06;;;;;;;4.90;1.60;;;;;;;19.00;23.07;100815.52;109854;1280;22234;-46
2023/05/11 12:17:36;;;;;;;3.30;1.30;;;;;;;18.88;23.37;100811.58;109943;1281;22212;-53
2023/05/11 12:20:11;;;;;;;1.90;1.40;;;;;;;18.80;23.50;100811.09;109916;1281;22347;-46
